Time;durP1;ratioP1;P1;durP2;ratioP2;P2;SDS_P1;SDS_P2;PMS_P1;PMS_P2;Temp;Humidity;BMP_temperature;BMP_pressure;BME280_temperature;BME280_humidity;BME280_pressure;Samples;Min_cycle;Max_cycle;Signal;HPM_P1;HPM_P2
2021/03/08 00:00:26;;;;;;;29.10;14.50;;;1.00;60.30;;;;;;5052711;28;20028;-67
2021/03/08 00:02:53;;;;;;;25.00;13.27;;;0.90;60.30;;;;;;5052267;28;20033;-67
2021/03/08 00:05:19;;;;;;;28.02;15.52;;;0.90;60.30;;;;;;5058779;28;20040;-66
2021/03/08 00:07:46;;;;;;;27.90;13.55;;;0.90;60.50;;;;;;5052027;28;20029;-66
2021/03/08 00:10:17;;;;;;;22.88;12.82;;;0.90;60.50;;;;;;5049141;28;20036;-67
2021/03/08 00:12:44;;;;;;;25.15;12.93;;;0.90;60.70;;;;;;5051840;28;20056;-67
2021/03/08 00:15:10;;;;;;;24.50;13.23;;;1.00;60.70;;;;;;5051270;28;20083;-67
2021/03/08 00:17:36;;;;;;;25.52;13.38;;;0.90;60.60;;;;;;5051863;28;20048;-67
2021/03/08 00:20:03;;;;;;;25.27;13.13;;;0.90;60.50;;;;;;5051499;28;20399;-67
2021/03/08 00:22:28;;;;;;;26.10;12.88;;;0.90;60.50;;;;;;5051544;28;20540;-67
2021/03/08 00:24:54;;;;;;;22.75;12.52;;;0.90;60.50;;;;;;5051214;28;20052;-67
2021/03/08 00:27:20;;;;;;;23.08;13.00;;;0.90;60.50;;;;;;5051186;28;20072;-67
2021/03/08 00:29:45;;;;;;;26.88;13.45;;;0.90;60.70;;;;;;5051292;28;20117;-66
2021/03/08 00:32:11;;;;;;;23.67;12.73;;;0.80;60.60;;;;;;5051120;28;20024;-65
2021/03/08 00:34:36;;;;;;;25.58;13.13;;;0.90;60.70;;;;;;5050638;28;20052;-66
2021/03/08 00:37:04;;;;;;;27.23;14.35;;;0.80;60.50;;;;;;5050341;28;20025;-67
2021/03/08 00:39:30;;;;;;;24.85;13.73;;;0.80;60.70;;;;;;5051244;28;20032;-65
2021/03/08 00:41:56;;;;;;;21.58;12.57;;;0.70;60.60;;;;;;5051167;28;20033;-65
2021/03/08 00:44:21;;;;;;;23.48;12.18;;;0.70;60.70;;;;;;5050393;28;20035;-66
2021/03/08 00:46:47;;;;;;;18.83;11.30;;;0.70;60.70;;;;;;5051170;28;20388;-66
2021/03/08 00:49:13;;;;;;;20.98;11.93;;;0.70;60.70;;;;;;5051096;28;20024;-66
2021/03/08 00:51:38;;;;;;;18.15;11.10;;;0.60;60.70;;;;;;5051340;28;20028;-65
2021/03/08 00:54:04;;;;;;;17.75;10.02;;;0.60;60.70;;;;;;5050458;28;20032;-67
2021/03/08 00:56:30;;;;;;;19.15;11.27;;;0.60;60.80;;;;;;5050368;28;20469;-67
2021/03/08 00:58:55;;;;;;;18.52;10.43;;;0.60;60.90;;;;;;5051092;28;20123;-66
2021/03/08 01:01:21;;;;;;;17.77;10.27;;;0.50;60.90;;;;;;5050507;28;20072;-66
2021/03/08 01:03:46;;;;;;;17.30;10.38;;;0.50;60.90;;;;;;5050220;28;20091;-63
2021/03/08 01:06:12;;;;;;;19.23;10.93;;;0.40;61.00;;;;;;5045458;28;20029;-67
2021/03/08 01:08:38;;;;;;;19.17;10.63;;;0.40;61.00;;;;;;5050537;28;20032;-67
2021/03/08 01:11:04;;;;;;;17.42;10.40;;;0.40;61.10;;;;;;5050254;28;20027;-67
2021/03/08 01:13:29;;;;;;;22.17;10.60;;;0.40;61.20;;;;;;5050730;28;20021;-66
2021/03/08 01:15:55;;;;;;;17.67;10.27;;;0.40;61.10;;;;;;5049399;28;20035;-66
2021/03/08 01:18:21;;;;;;;17.90;10.48;;;0.40;61.10;;;;;;5050647;28;20033;-67
2021/03/08 01:20:47;;;;;;;18.25;9.98;;;0.40;61.10;;;;;;5050582;28;20033;-67
2021/03/08 01:23:13;;;;;;;19.65;10.40;;;0.30;61.10;;;;;;5050489;28;20192;-67
2021/03/08 01:25:39;;;;;;;18.00;10.27;;;0.30;61.10;;;;;;5050265;28;20345;-67
2021/03/08 01:28:06;;;;;;;19.98;10.77;;;0.30;61.20;;;;;;5050518;28;20025;-67
2021/03/08 01:30:38;;;;;;;19.75;10.90;;;0.20;61.20;;;;;;5050338;28;20017;-66
2021/03/08 01:33:04;;;;;;;19.40;10.02;;;0.20;61.50;;;;;;5050353;28;20025;-66
2021/03/08 01:35:30;;;;;;;15.88;9.63;;;0.20;61.40;;;;;;5049694;28;20029;-66
2021/03/08 01:37:56;;;;;;;15.57;9.25;;;0.20;61.40;;;;;;5050332;28;20025;-66
2021/03/08 01:40:24;;;;;;;16.40;9.10;;;0.20;61.40;;;;;;5050574;28;20025;-66
2021/03/08 01:42:50;;;;;;;17.63;9.70;;;0.20;61.40;;;;;;5050207;28;20025;-66
2021/03/08 01:45:17;;;;;;;16.05;10.05;;;0.20;61.30;;;;;;5049397;28;20059;-66
2021/03/08 01:47:44;;;;;;;17.65;9.80;;;0.20;61.30;;;;;;5050530;28;20083;-67
2021/03/08 01:50:23;;;;;;;15.00;9.10;;;0.20;61.40;;;;;;5054333;28;20584;-65
2021/03/08 01:52:50;;;;;;;16.48;9.40;;;0.20;61.50;;;;;;5053943;28;20102;-66
2021/03/08 01:55:17;;;;;;;16.05;8.82;;;0.20;61.40;;;;;;5053352;28;20024;-65
2021/03/08 01:57:43;;;;;;;17.27;9.73;;;0.10;61.30;;;;;;5053204;28;20033;-66
2021/03/08 02:00:09;;;;;;;14.52;8.45;;;0.20;61.40;;;;;;5054315;28;20151;-66
2021/03/08 02:02:35;;;;;;;15.57;9.40;;;0.10;61.30;;;;;;5053497;28;20521;-67
2021/03/08 02:05:01;;;;;;;15.05;9.45;;;0.10;61.30;;;;;;5063420;28;20159;-66
2021/03/08 02:07:27;;;;;;;12.15;8.18;;;0.10;61.30;;;;;;5054691;28;20067;-66
2021/03/08 02:09:52;;;;;;;15.15;8.43;;;0.20;61.40;;;;;;5053833;28;20444;-64
2021/03/08 02:12:42;;;;;;;13.75;9.00;;;0.10;61.30;;;;;;5053535;28;20500;-67
2021/03/08 02:15:35;;;;;;;13.77;8.55;;;0.10;61.40;;;;;;5053102;28;20254;-66
2021/03/08 02:18:27;;;;;;;13.52;8.07;;;0.10;61.40;;;;;;5053643;28;20435;-66
2021/03/08 02:21:31;;;;;;;11.00;6.72;;;0.00;61.50;;;;;;5053316;28;20032;-66
2021/03/08 02:24:38;;;;;;;15.10;8.93;;;0.00;61.30;;;;;;5051304;28;20049;-67
2021/03/08 02:27:42;;;;;;;15.40;9.25;;;0.00;61.40;;;;;;5042163;28;20120;-66
2021/03/08 02:30:28;;;;;;;15.82;9.38;;;-0.10;61.60;;;;;;5022882;28;20041;-67
2021/03/08 02:32:55;;;;;;;15.63;9.18;;;-0.10;61.50;;;;;;5039191;28;20416;-65
2021/03/08 02:35:25;;;;;;;16.25;9.40;;;-0.10;61.60;;;;;;5052137;28;20809;-63
2021/03/08 02:38:02;;;;;;;15.35;9.00;;;-0.10;61.70;;;;;;5052601;28;20127;-66
2021/03/08 02:40:34;;;;;;;18.67;9.32;;;0.00;61.80;;;;;;5053426;28;20053;-64
2021/03/08 02:43:01;;;;;;;13.23;7.53;;;0.00;61.80;;;;;;5052972;28;20060;-64
2021/03/08 02:45:31;;;;;;;18.02;8.13;;;0.00;61.40;;;;;;5052835;28;20464;-65
2021/03/08 02:48:00;;;;;;;17.50;9.77;;;0.00;61.50;;;;;;5052946;28;20136;-66
2021/03/08 02:50:31;;;;;;;15.02;9.20;;;0.00;61.60;;;;;;5052671;28;20021;-66
2021/03/08 02:53:00;;;;;;;17.30;10.15;;;0.00;61.50;;;;;;5052364;28;20028;-68
2021/03/08 02:55:33;;;;;;;17.10;10.38;;;-0.10;61.50;;;;;;5052337;28;20547;-65
2021/03/08 02:58:01;;;;;;;19.45;9.48;;;-0.20;61.70;;;;;;5052888;28;20055;-65
2021/03/08 03:00:29;;;;;;;16.02;10.00;;;-0.10;61.90;;;;;;5051674;28;20029;-66
2021/03/08 03:02:57;;;;;;;18.35;10.23;;;-0.10;61.80;;;;;;5052858;28;20029;-65
2021/03/08 03:05:24;;;;;;;15.13;9.43;;;-0.20;61.70;;;;;;5054991;28;20024;-65
2021/03/08 03:07:51;;;;;;;20.05;11.10;;;-0.20;61.80;;;;;;5052574;28;20078;-66
2021/03/08 03:10:21;;;;;;;20.17;10.63;;;-0.10;61.90;;;;;;5052733;28;20464;-66
2021/03/08 03:12:51;;;;;;;15.73;9.20;;;-0.20;61.80;;;;;;5052316;28;20393;-65
2021/03/08 03:15:17;;;;;;;22.20;9.68;;;-0.20;61.90;;;;;;5052087;28;20028;-65
2021/03/08 03:17:45;;;;;;;18.35;10.80;;;-0.20;62.00;;;;;;5052572;28;20495;-65
2021/03/08 03:20:13;;;;;;;17.80;10.15;;;-0.10;62.00;;;;;;5052146;28;20064;-65
2021/03/08 03:22:43;;;;;;;15.27;10.05;;;-0.20;61.90;;;;;;5052540;28;20378;-65
2021/03/08 03:25:10;;;;;;;16.27;9.27;;;-0.10;61.90;;;;;;5051511;28;20049;-65
2021/03/08 03:27:38;;;;;;;17.48;10.38;;;-0.10;61.80;;;;;;5051820;28;20032;-66
2021/03/08 03:30:07;;;;;;;18.08;10.18;;;-0.20;61.90;;;;;;5051963;28;20025;-66
2021/03/08 03:32:34;;;;;;;19.30;10.10;;;-0.10;62.10;;;;;;5052484;28;20108;-66
2021/03/08 03:35:00;;;;;;;17.42;10.30;;;-0.10;61.90;;;;;;5051007;28;20035;-66
2021/03/08 03:37:27;;;;;;;18.50;10.77;;;-0.10;61.80;;;;;;5051522;28;20119;-66
2021/03/08 03:39:53;;;;;;;20.52;11.38;;;-0.10;61.80;;;;;;5052008;28;20045;-66
2021/03/08 03:42:19;;;;;;;21.90;12.02;;;-0.10;61.80;;;;;;5051957;28;20493;-65
2021/03/08 03:44:45;;;;;;;20.20;11.48;;;-0.20;61.80;;;;;;5051093;28;20090;-66
2021/03/08 03:47:14;;;;;;;18.60;11.25;;;-0.20;61.80;;;;;;5052216;28;20029;-66
2021/03/08 03:49:40;;;;;;;18.73;10.57;;;-0.20;62.00;;;;;;5052033;28;20056;-65
2021/03/08 03:52:06;;;;;;;23.33;11.32;;;-0.20;62.00;;;;;;5052161;28;20025;-65
2021/03/08 03:54:32;;;;;;;21.15;11.27;;;-0.20;62.10;;;;;;5051235;28;20076;-66
2021/03/08 03:57:10;;;;;;;16.70;9.90;;;-0.20;62.10;;;;;;5051467;28;20067;-65
2021/03/08 03:59:42;;;;;;;17.83;10.45;;;-0.20;62.20;;;;;;5051935;28;20052;-65
2021/03/08 04:02:14;;;;;;;21.38;11.25;;;-0.20;62.10;;;;;;5052163;28;20028;-67
2021/03/08 04:04:51;;;;;;;19.77;11.02;;;-0.20;62.00;;;;;;5050935;28;20028;-65
2021/03/08 04:07:18;;;;;;;19.98;10.95;;;-0.20;62.10;;;;;;5048712;28;20032;-67
2021/03/08 04:09:50;;;;;;;22.77;11.07;;;-0.20;62.10;;;;;;5051515;28;20021;-67
2021/03/08 04:12:20;;;;;;;18.25;10.10;;;-0.20;62.10;;;;;;5033366;28;20120;-65
2021/03/08 04:14:52;;;;;;;17.42;10.77;;;-0.20;62.10;;;;;;5044079;28;20037;-66
2021/03/08 04:17:18;;;;;;;17.17;10.60;;;-0.30;62.70;;;;;;5053494;28;20037;-67
2021/03/08 04:19:45;;;;;;;20.73;11.45;;;-0.30;62.00;;;;;;5054767;28;20068;-65
2021/03/08 04:22:13;;;;;;;16.50;9.77;;;-0.30;62.00;;;;;;5054257;28;20029;-66
2021/03/08 04:24:40;;;;;;;15.70;10.13;;;-0.30;62.00;;;;;;5052607;28;20586;-66
2021/03/08 04:27:09;;;;;;;16.33;10.10;;;-0.30;62.10;;;;;;5052527;28;20083;-67
2021/03/08 04:29:40;;;;;;;16.23;9.77;;;-0.40;62.10;;;;;;5053037;28;20028;-66
2021/03/08 04:32:07;;;;;;;16.80;10.15;;;-0.40;62.30;;;;;;5050468;28;20043;-66
2021/03/08 04:34:35;;;;;;;18.05;10.15;;;-0.50;62.20;;;;;;5050388;28;20093;-66
2021/03/08 04:37:01;;;;;;;18.05;9.63;;;-0.50;62.20;;;;;;5051637;28;20480;-66
2021/03/08 04:39:28;;;;;;;15.07;9.63;;;-0.60;62.30;;;;;;5050717;28;20029;-67
2021/03/08 04:41:55;;;;;;;19.55;10.15;;;-0.50;62.50;;;;;;5050476;28;20029;-67
2021/03/08 04:44:22;;;;;;;18.63;10.10;;;-0.50;62.40;;;;;;5050122;28;20111;-65
2021/03/08 04:46:49;;;;;;;16.60;9.93;;;-0.50;62.30;;;;;;5051143;28;20031;-66
2021/03/08 04:49:17;;;;;;;19.23;10.70;;;-0.50;62.30;;;;;;5050906;28;20032;-66
2021/03/08 04:51:44;;;;;;;19.58;10.60;;;-0.50;62.20;;;;;;5050806;28;20083;-67
2021/03/08 04:54:10;;;;;;;21.75;10.52;;;-0.40;62.20;;;;;;5050203;28;20025;-66
2021/03/08 04:56:37;;;;;;;17.75;9.13;;;-0.40;62.20;;;;;;5050944;28;20029;-65
2021/03/08 04:59:03;;;;;;;17.05;9.63;;;-0.40;62.20;;;;;;5050991;28;20025;-66
2021/03/08 05:01:33;;;;;;;16.88;9.65;;;-0.40;62.30;;;;;;5051539;28;20024;-66
2021/03/08 05:04:00;;;;;;;19.60;10.30;;;-0.40;62.30;;;;;;5050331;28;20056;-64
2021/03/08 05:06:28;;;;;;;16.98;10.18;;;-0.30;62.20;;;;;;5051425;28;20024;-66
2021/03/08 05:08:55;;;;;;;18.10;10.00;;;-0.40;62.00;;;;;;5050238;28;20090;-66
2021/03/08 05:11:21;;;;;;;19.08;10.23;;;-0.50;62.00;;;;;;5050389;28;20020;-65
2021/03/08 05:13:49;;;;;;;18.30;10.13;;;-0.60;62.10;;;;;;5050166;28;20051;-65
2021/03/08 05:16:17;;;;;;;22.85;10.40;;;-0.60;62.40;;;;;;5071554;22;20154;-91
2021/03/08 05:18:45;;;;;;;16.95;10.18;;;-0.60;62.40;;;;;;5015866;28;20040;-90
2021/03/08 05:21:13;;;;;;;19.15;9.50;;;-0.60;62.40;;;;;;5016492;28;20084;-91
2021/03/08 05:23:40;;;;;;;19.90;10.35;;;-0.70;62.30;;;;;;5015762;28;20467;-90
2021/03/08 05:26:06;;;;;;;19.75;10.43;;;-0.60;62.50;;;;;;5015559;28;20068;-91
2021/03/08 05:28:33;;;;;;;22.92;10.70;;;-0.60;63.00;;;;;;5016369;28;20065;-90
2021/03/08 05:31:00;;;;;;;18.85;10.82;;;-0.60;62.50;;;;;;5016251;28;20029;-90
2021/03/08 05:33:29;;;;;;;15.88;9.77;;;-0.60;62.50;;;;;;5016108;28;20025;-90
2021/03/08 05:35:57;;;;;;;19.88;10.88;;;-0.60;62.40;;;;;;5016094;28;20422;-90
2021/03/08 05:38:25;;;;;;;19.02;11.02;;;-0.60;62.40;;;;;;5016085;28;20030;-91
2021/03/08 05:41:35;;;;;;;17.40;10.15;;;-0.60;62.40;;;;;;5033163;28;20060;-91
2021/03/08 05:44:06;;;;;;;19.23;10.68;;;-0.70;62.50;;;;;;5012349;28;20037;-90
2021/03/08 05:46:53;;;;;;;18.98;11.20;;;-0.70;62.50;;;;;;5016202;28;20025;-90
2021/03/08 05:49:49;;;;;;;19.63;11.10;;;-0.70;62.60;;;;;;5019272;28;20052;-92
2021/03/08 05:52:40;;;;;;;19.33;10.43;;;-0.70;62.50;;;;;;5018327;28;20022;-92
2021/03/08 05:55:05;;;;;;;20.40;10.20;;;-0.80;62.40;;;;;;5017821;28;20026;-90
2021/03/08 05:57:49;;;;;;;17.50;10.55;;;-0.80;62.60;;;;;;5016791;28;20083;-91
2021/03/08 06:00:20;;;;;;;22.20;10.90;;;-0.80;62.80;;;;;;5016354;28;20021;-91
2021/03/08 06:03:08;;;;;;;19.20;10.40;;;-0.80;62.90;;;;;;5015740;28;20037;-91
2021/03/08 06:05:55;;;;;;;18.83;10.65;;;-0.70;62.90;;;;;;5015636;28;20097;-90
2021/03/08 06:08:26;;;;;;;20.88;10.85;;;-0.70;62.70;;;;;;5015685;28;20393;-91
2021/03/08 06:11:09;;;;;;;16.20;10.00;;;-0.70;62.60;;;;;;5016373;28;20547;-90
2021/03/08 06:13:54;;;;;;;20.73;10.27;;;-0.70;62.70;;;;;;5015213;28;20021;-91
2021/03/08 06:16:35;;;;;;;20.75;10.30;;;-0.70;62.60;;;;;;5015685;28;20041;-90
2021/03/08 06:19:03;;;;;;;20.13;10.73;;;-0.80;62.90;;;;;;5016145;28;20029;-90
2021/03/08 06:21:32;;;;;;;19.38;10.93;;;-0.70;63.00;;;;;;5015273;28;20062;-90
2021/03/08 06:23:58;;;;;;;18.05;10.65;;;-0.70;63.20;;;;;;5015677;28;20527;-90
2021/03/08 06:26:25;;;;;;;17.77;10.35;;;-0.60;63.00;;;;;;5015268;28;20093;-90
2021/03/08 06:28:52;;;;;;;18.15;10.50;;;-0.50;63.00;;;;;;5015063;28;20487;-90
2021/03/08 06:31:19;;;;;;;26.55;11.40;;;-0.40;62.80;;;;;;5016965;28;20480;-90
2021/03/08 06:33:44;;;;;;;16.52;10.65;;;-0.30;62.70;;;;;;5016212;28;20026;-91
2021/03/08 06:36:12;;;;;;;19.80;11.45;;;-0.10;62.60;;;;;;5019193;28;20013;-91
2021/03/08 06:38:38;;;;;;;20.90;10.88;;;0.10;62.10;;;;;;5019820;28;20036;-91
2021/03/08 06:41:06;;;;;;;20.92;11.20;;;0.20;61.80;;;;;;5038593;28;20081;-91
2021/03/08 06:43:32;;;;;;;17.33;10.63;;;0.40;61.80;;;;;;5019512;28;20039;-91
2021/03/08 06:45:57;;;;;;;21.08;11.00;;;0.60;61.60;;;;;;5019391;28;20088;-91
2021/03/08 06:48:23;;;;;;;22.08;11.65;;;0.80;61.40;;;;;;5019448;28;20063;-91
2021/03/08 06:51:18;;;;;;;19.02;12.48;;;1.00;61.20;;;;;;5020729;28;20116;-92
2021/03/08 06:53:46;;;;;;;19.52;10.98;;;1.30;61.10;;;;;;5020234;28;20468;-91
2021/03/08 06:56:12;;;;;;;21.52;11.40;;;1.40;60.40;;;;;;5019153;28;20036;-91
2021/03/08 06:58:38;;;;;;;18.65;10.98;;;1.50;60.30;;;;;;5019984;28;20032;-90
2021/03/08 07:01:11;;;;;;;19.80;11.60;;;1.60;60.30;;;;;;5019487;28;20486;-91
2021/03/08 07:03:37;;;;;;;19.83;11.93;;;1.70;60.40;;;;;;5018687;28;20029;-91
2021/03/08 07:06:17;;;;;;;17.20;11.07;;;1.90;60.50;;;;;;5019369;28;20075;-91
2021/03/08 07:08:46;;;;;;;20.40;11.68;;;2.00;60.40;;;;;;5018398;28;20537;-91
2021/03/08 07:11:21;;;;;;;22.25;11.68;;;2.10;60.30;;;;;;5018604;28;20026;-91
2021/03/08 07:13:48;;;;;;;21.75;12.52;;;2.30;60.40;;;;;;5017961;28;20027;-90
2021/03/08 07:16:14;;;;;;;21.42;11.77;;;2.40;60.20;;;;;;5018702;28;20025;-91
2021/03/08 07:18:41;;;;;;;26.30;11.00;;;2.60;60.20;;;;;;5017915;28;20187;-92
2021/03/08 07:21:12;;;;;;;22.98;11.70;;;2.70;60.60;;;;;;5017934;28;20138;-91
2021/03/08 07:23:40;;;;;;;18.70;11.73;;;2.90;60.10;;;;;;5018465;28;20025;-91
2021/03/08 07:26:07;;;;;;;19.23;11.23;;;3.00;60.10;;;;;;5018737;28;20022;-92
2021/03/08 07:28:33;;;;;;;18.05;9.20;;;3.30;60.00;;;;;;5018310;28;20473;-91
2021/03/08 07:30:59;;;;;;;15.23;9.43;;;3.50;59.60;;;;;;5018454;28;20029;-91
2021/03/08 07:33:24;;;;;;;18.85;9.85;;;3.60;59.20;;;;;;5019015;28;20030;-92
2021/03/08 07:35:53;;;;;;;16.70;9.93;;;3.80;59.00;;;;;;5018458;28;20030;-91
2021/03/08 07:38:32;;;;;;;14.18;9.43;;;3.90;59.10;;;;;;5018643;28;20026;-93
2021/03/08 07:41:16;;;;;;;13.48;9.60;;;4.20;58.70;;;;;;5019624;28;20108;-91
2021/03/08 07:43:44;;;;;;;15.00;9.35;;;4.50;57.90;;;;;;5018763;28;20079;-90
2021/03/08 07:46:25;;;;;;;14.10;9.35;;;4.70;57.50;;;;;;5035519;28;20475;-91
2021/03/08 07:49:43;;;;;;;13.57;9.05;;;4.80;57.30;;;;;;5017904;28;20438;-93
2021/03/08 07:52:42;;;;;;;12.25;7.93;;;5.10;57.50;;;;;;4993751;28;20446;-93
2021/03/08 07:55:12;;;;;;;11.93;8.85;;;5.50;57.10;;;;;;5035932;28;20021;-93
2021/03/08 07:57:56;;;;;;;14.48;9.95;;;5.80;56.30;;;;;;5002017;28;20061;-92
2021/03/08 08:00:22;;;;;;;12.63;8.68;;;6.10;56.10;;;;;;5017894;28;20132;-90
2021/03/08 08:02:48;;;;;;;13.75;8.93;;;6.10;55.70;;;;;;5019132;28;20123;-92
2021/03/08 08:05:14;;;;;;;11.23;9.30;;;6.20;56.40;;;;;;5019653;28;20132;-93
2021/03/08 08:07:44;;;;;;;17.73;9.90;;;6.20;56.30;;;;;;5018676;28;20029;-91
2021/03/08 08:10:15;;;;;;;16.30;9.32;;;6.60;56.40;;;;;;5017714;28;20026;-93
2021/03/08 08:12:49;;;;;;;13.20;9.02;;;7.00;55.60;;;;;;5018273;28;20502;-93
2021/03/08 08:15:20;;;;;;;12.93;9.00;;;7.50;54.50;;;;;;5018417;28;20030;-93
2021/03/08 08:17:48;;;;;;;14.45;8.30;;;7.90;53.70;;;;;;5018141;28;20120;-92
2021/03/08 08:20:15;;;;;;;12.40;8.50;;;8.20;53.00;;;;;;5017879;28;20031;-93
2021/03/08 08:22:51;;;;;;;12.23;8.55;;;8.60;52.50;;;;;;5018162;28;20168;-92
2021/03/08 08:25:18;;;;;;;12.25;8.50;;;9.00;51.70;;;;;;5018063;28;20048;-92
2021/03/08 08:27:46;;;;;;;12.70;9.63;;;9.20;51.10;;;;;;5017339;28;20045;-93
2021/03/08 08:30:52;;;;;;;11.35;9.30;;;9.20;51.20;;;;;;5018605;28;20104;-94
2021/03/08 08:33:54;;;;;;;11.18;9.13;;;9.10;51.50;;;;;;5021341;28;20058;-94
2021/03/08 08:36:31;;;;;;;12.02;8.70;;;8.80;52.10;;;;;;4990620;28;20040;-93
2021/03/08 08:39:00;;;;;;;11.50;7.57;;;8.40;53.00;;;;;;5018806;28;20039;-94
2021/03/08 08:41:32;;;;;;;13.98;7.68;;;8.20;53.90;;;;;;5019232;28;20476;-93
2021/03/08 08:44:17;;;;;;;;;;;8.20;54.20;;;;;;5017052;28;20040;-91
2021/03/08 08:46:45;;;;;;;11.38;7.93;;;8.20;54.70;;;;;;5018230;28;20286;-92
2021/03/08 08:49:13;;;;;;;11.00;8.10;;;8.30;54.60;;;;;;5017722;28;20047;-92
2021/03/08 08:51:53;;;;;;;11.00;7.70;;;8.40;54.30;;;;;;5018890;28;20143;-92
2021/03/08 08:54:28;;;;;;;11.75;7.53;;;8.60;54.00;;;;;;5018899;28;20025;-91
2021/03/08 08:56:57;;;;;;;12.73;8.05;;;8.60;53.70;;;;;;5019702;28;20388;-89
2021/03/08 08:59:25;;;;;;;11.43;7.65;;;8.70;53.70;;;;;;5009133;28;20040;-90
2021/03/08 09:02:10;;;;;;;12.75;7.43;;;8.80;53.60;;;;;;4998085;28;20025;-90
2021/03/08 09:04:36;;;;;;;11.38;7.68;;;8.90;53.10;;;;;;4999799;28;20084;-91
2021/03/08 09:07:16;;;;;;;11.48;7.53;;;9.00;53.10;;;;;;5016806;28;20483;-88
2021/03/08 09:09:47;;;;;;;14.15;7.82;;;9.10;53.20;;;;;;5019704;28;20072;-90
2021/03/08 09:12:33;;;;;;;10.73;8.02;;;9.20;52.60;;;;;;5016593;28;20112;-90
2021/03/08 09:15:01;;;;;;;14.40;8.38;;;9.20;52.80;;;;;;5016006;28;20029;-90
2021/03/08 09:17:41;;;;;;;10.70;7.07;;;9.40;52.90;;;;;;5015594;28;20030;-90
2021/03/08 09:20:07;;;;;;;11.45;7.78;;;9.50;52.70;;;;;;5015847;28;20024;-90
2021/03/08 09:22:35;;;;;;;9.93;6.82;;;9.70;52.20;;;;;;5015773;28;20018;-90
2021/03/08 09:25:10;;;;;;;10.25;6.57;;;10.00;52.20;;;;;;5014873;28;20032;-90
2021/03/08 09:27:38;;;;;;;11.93;7.03;;;9.90;51.80;;;;;;5015888;28;20069;-90
2021/03/08 09:30:21;;;;;;;9.43;6.10;;;10.00;51.90;;;;;;5016386;28;20025;-90
2021/03/08 09:32:55;;;;;;;8.45;5.85;;;10.20;51.70;;;;;;5015985;28;20028;-91
2021/03/08 09:35:22;;;;;;;10.82;6.30;;;10.40;51.40;;;;;;5015277;28;20021;-91
2021/03/08 09:37:51;;;;;;;13.07;7.22;;;10.50;51.20;;;;;;5015543;28;20075;-90
2021/03/08 09:40:22;;;;;;;10.68;6.75;;;10.50;51.30;;;;;;5015398;28;20036;-91
2021/03/08 09:42:48;;;;;;;9.48;6.28;;;10.60;51.20;;;;;;5015593;28;20053;-90
2021/03/08 09:45:34;;;;;;;9.38;6.53;;;10.70;51.40;;;;;;5015362;28;20057;-90
2021/03/08 09:48:02;;;;;;;11.15;6.20;;;10.90;50.80;;;;;;5015721;28;20030;-90
2021/03/08 09:50:38;;;;;;;6.80;4.65;;;11.10;50.50;;;;;;5015184;28;20026;-91
2021/03/08 09:53:05;;;;;;;5.07;3.72;;;11.10;50.40;;;;;;5014990;28;20049;-90
2021/03/08 09:55:34;;;;;;;6.68;3.55;;;11.10;50.20;;;;;;5000930;28;20603;-90
2021/03/08 09:58:19;;;;;;;5.07;3.40;;;11.00;50.20;;;;;;4995904;28;20037;-90
2021/03/08 10:00:48;;;;;;;5.60;3.33;;;10.90;50.10;;;;;;4995312;28;20022;-90
2021/03/08 10:03:14;;;;;;;6.63;3.47;;;10.90;50.20;;;;;;4995181;28;20028;-90
2021/03/08 10:05:50;;;;;;;4.72;3.28;;;10.90;50.10;;;;;;4995370;28;20116;-90
2021/03/08 10:08:21;;;;;;;7.13;3.40;;;10.90;49.80;;;;;;5011619;28;20381;-90
2021/03/08 10:10:49;;;;;;;6.05;2.92;;;10.90;49.70;;;;;;5024779;28;20627;-90
2021/03/08 10:13:15;;;;;;;5.00;3.30;;;11.00;49.70;;;;;;5021069;28;20108;-90
2021/03/08 10:15:48;;;;;;;3.60;2.88;;;10.90;49.60;;;;;;5018909;28;20037;-92
2021/03/08 10:18:16;;;;;;;4.45;2.97;;;10.90;49.20;;;;;;5019780;28;20071;-90
2021/03/08 10:21:00;;;;;;;4.97;3.08;;;10.90;49.20;;;;;;5019503;28;20025;-91
2021/03/08 10:23:31;;;;;;;6.75;3.28;;;10.90;49.20;;;;;;5019250;28;20083;-91
2021/03/08 10:26:14;;;;;;;5.70;3.13;;;10.80;48.90;;;;;;5018690;28;20387;-90
2021/03/08 10:28:49;;;;;;;6.05;2.95;;;10.70;49.40;;;;;;5013737;28;20029;-90
2021/03/08 10:31:20;;;;;;;3.72;2.70;;;10.70;49.10;;;;;;5019129;28;20025;-90
2021/03/08 10:33:49;;;;;;;3.00;2.50;;;10.60;48.90;;;;;;5018456;28;20033;-90
2021/03/08 10:36:20;;;;;;;4.93;2.88;;;10.50;49.10;;;;;;5018889;28;20052;-91
2021/03/08 10:38:52;;;;;;;4.65;2.97;;;10.60;49.20;;;;;;5018849;28;20112;-91
2021/03/08 10:41:20;;;;;;;6.75;3.22;;;10.60;49.20;;;;;;5020322;28;20073;-91
2021/03/08 10:43:45;;;;;;;4.05;2.85;;;10.60;49.70;;;;;;5028471;28;20033;-90
2021/03/08 10:46:12;;;;;;;5.13;3.03;;;10.50;49.00;;;;;;5028396;28;20025;-90
2021/03/08 10:49:00;;;;;;;4.43;3.15;;;10.40;49.00;;;;;;5038582;28;20364;-90
2021/03/08 10:51:26;;;;;;;4.75;2.97;;;10.40;49.00;;;;;;5038564;28;20021;-90
2021/03/08 10:54:38;;;;;;;7.22;3.10;;;10.30;49.30;;;;;;5038256;28;20021;-91
2021/03/08 10:57:04;;;;;;;7.70;3.17;;;10.20;49.40;;;;;;5021767;28;20437;-90
2021/03/08 10:59:30;;;;;;;3.38;3.00;;;10.20;49.70;;;;;;5018826;28;20029;-91
2021/03/08 11:02:00;;;;;;;5.80;3.60;;;10.10;49.40;;;;;;4997647;28;20480;-90
2021/03/08 11:04:26;;;;;;;4.40;3.13;;;10.00;49.40;;;;;;5009102;28;20037;-90
2021/03/08 11:06:52;;;;;;;6.38;3.30;;;9.90;49.60;;;;;;5017834;28;20479;-90
2021/03/08 11:09:29;;;;;;;3.67;3.05;;;9.90;49.90;;;;;;5018077;28;20029;-90
2021/03/08 11:11:54;;;;;;;8.40;4.68;;;9.90;49.80;;;;;;5017831;28;20074;-90
2021/03/08 11:14:21;;;;;;;4.68;2.95;;;9.90;50.10;;;;;;5018075;28;20100;-90
2021/03/08 11:16:58;;;;;;;5.80;3.33;;;10.00;50.00;;;;;;5018079;28;20120;-90
2021/03/08 11:19:24;;;;;;;4.25;2.90;;;10.20;50.00;;;;;;5017881;28;20021;-91
2021/03/08 11:22:13;;;;;;;4.97;2.92;;;10.40;49.80;;;;;;5043250;23;20045;-86
2021/03/08 11:24:52;;;;;;;5.05;3.22;;;10.50;49.70;;;;;;5067807;28;20315;-86
2021/03/08 11:27:27;;;;;;;4.95;3.17;;;10.70;49.30;;;;;;5050914;28;20052;-85
2021/03/08 11:30:03;;;;;;;4.70;3.17;;;10.80;48.70;;;;;;5041543;28;20514;-85
2021/03/08 11:32:31;;;;;;;4.32;3.25;;;10.80;48.20;;;;;;5044819;28;20062;-85
2021/03/08 11:34:57;;;;;;;5.13;3.22;;;10.80;48.80;;;;;;5070210;28;20024;-85
2021/03/08 11:37:24;;;;;;;7.80;3.28;;;10.90;48.90;;;;;;5058548;28;20024;-88
2021/03/08 11:39:56;;;;;;;4.30;3.20;;;10.90;48.60;;;;;;5056638;28;20016;-88
2021/03/08 11:42:25;;;;;;;5.80;3.22;;;10.90;48.60;;;;;;5057476;28;20025;-84
2021/03/08 11:44:52;;;;;;;7.10;3.13;;;10.80;48.40;;;;;;5058128;28;20024;-84
2021/03/08 11:47:18;;;;;;;4.57;3.15;;;10.50;48.60;;;;;;5055766;28;20028;-85
2021/03/08 11:49:43;;;;;;;4.30;3.35;;;10.40;48.90;;;;;;5050485;28;20029;-83
2021/03/08 11:52:10;;;;;;;4.80;3.08;;;10.50;49.10;;;;;;5054433;28;20096;-82
2021/03/08 11:54:36;;;;;;;4.45;3.28;;;10.70;49.20;;;;;;5058192;28;20020;-83
2021/03/08 11:57:05;;;;;;;15.95;8.85;;;10.90;48.80;;;;;;5058282;28;20028;-83
2021/03/08 11:59:31;;;;;;;5.32;3.22;;;11.10;49.00;;;;;;5057946;28;20025;-84
2021/03/08 12:01:57;;;;;;;6.68;3.38;;;11.40;48.60;;;;;;5056846;28;20032;-84
2021/03/08 12:04:23;;;;;;;5.45;2.90;;;11.60;48.50;;;;;;5056939;28;20028;-83
2021/03/08 12:06:49;;;;;;;3.80;3.30;;;11.90;48.20;;;;;;5057650;28;20032;-84
2021/03/08 12:09:15;;;;;;;3.28;2.92;;;11.90;47.80;;;;;;5058348;28;20488;-84
2021/03/08 12:11:40;;;;;;;4.72;3.25;;;11.80;47.50;;;;;;5067178;28;20025;-84
2021/03/08 12:14:07;;;;;;;3.92;2.92;;;11.70;47.30;;;;;;5074079;28;20012;-82
2021/03/08 12:16:33;;;;;;;4.97;2.78;;;11.60;47.60;;;;;;5069389;28;20031;-81
2021/03/08 12:19:11;;;;;;;4.25;2.80;;;11.30;47.60;;;;;;5070747;28;20075;-83
2021/03/08 12:21:37;;;;;;;5.25;3.50;;;11.10;48.00;;;;;;5044910;28;20025;-84
2021/03/08 12:24:03;;;;;;;3.90;2.58;;;11.20;48.40;;;;;;5053122;28;20599;-84
2021/03/08 12:26:29;;;;;;;6.75;3.05;;;11.30;48.10;;;;;;5055174;28;20056;-84
2021/03/08 12:28:55;;;;;;;4.00;2.65;;;11.10;47.90;;;;;;5058506;28;20033;-83
2021/03/08 12:31:20;;;;;;;4.45;2.78;;;11.20;47.90;;;;;;5058050;28;20497;-84
2021/03/08 12:33:47;;;;;;;4.97;2.83;;;11.30;47.70;;;;;;5058681;28;20046;-83
2021/03/08 12:36:13;;;;;;;3.85;2.97;;;11.30;47.50;;;;;;5058475;28;20095;-85
2021/03/08 12:38:39;;;;;;;3.65;2.75;;;11.30;47.30;;;;;;5058541;28;20025;-85
2021/03/08 12:41:05;;;;;;;3.25;2.60;;;11.20;47.60;;;;;;5058926;28;20367;-85
2021/03/08 12:43:35;;;;;;;2.42;2.03;;;11.20;47.60;;;;;;5057408;28;20032;-84
2021/03/08 12:46:04;;;;;;;4.32;2.40;;;11.30;47.20;;;;;;5041465;28;20052;-84
2021/03/08 12:48:52;;;;;;;4.82;2.38;;;11.10;47.20;;;;;;5058745;28;20072;-85
2021/03/08 12:51:24;;;;;;;3.65;2.60;;;11.10;47.40;;;;;;5029348;28;20071;-84
2021/03/08 12:53:51;;;;;;;3.83;2.28;;;11.10;47.20;;;;;;5055627;28;20368;-84
2021/03/08 12:56:17;;;;;;;5.30;2.97;;;11.30;47.50;;;;;;5021445;28;20026;-84
2021/03/08 12:59:16;;;;;;;4.18;2.55;;;11.50;47.50;;;;;;5036618;28;20052;-85